sensor_id;sensor_type;location;lat;lon;timestamp;P1;durP1;ratioP1;P2;durP2;ratioP2
4307;SDS011;2167;53.448;9.984;2023-04-25T00:01:26;4.47;;;2.37;;
4307;SDS011;2167;53.448;9.984;2023-04-25T00:03:51;4.83;;;2.60;;
4307;SDS011;2167;53.448;9.984;2023-04-25T00:06:17;6.23;;;2.70;;
4307;SDS011;2167;53.448;9.984;2023-04-25T00:08:46;3.60;;;2.27;;
4307;SDS011;2167;53.448;9.984;2023-04-25T00:11:12;2.23;;;2.00;;
4307;SDS011;2167;53.448;9.984;2023-04-25T00:13:39;6.23;;;2.67;;
4307;SDS011;2167;53.448;9.984;2023-04-25T00:16:06;2.97;;;2.67;;
4307;SDS011;2167;53.448;9.984;2023-04-25T00:18:32;6.13;;;1.20;;
4307;SDS011;2167;53.448;9.984;2023-04-25T00:20:58;4.23;;;2.03;;
4307;SDS011;2167;53.448;9.984;2023-04-25T00:23:33;2.90;;;2.10;;
4307;SDS011;2167;53.448;9.984;2023-04-25T00:26:04;3.90;;;2.60;;
4307;SDS011;2167;53.448;9.984;2023-04-25T00:28:30;2.90;;;1.70;;
4307;SDS011;2167;53.448;9.984;2023-04-25T00:30:56;9.30;;;2.60;;
4307;SDS011;2167;53.448;9.984;2023-04-25T00:33:24;9.20;;;3.23;;
4307;SDS011;2167;53.448;9.984;2023-04-25T00:35:50;5.50;;;3.40;;
4307;SDS011;2167;53.448;9.984;2023-04-25T00:38:15;4.63;;;2.13;;
4307;SDS011;2167;53.448;9.984;2023-04-25T00:40:43;10.93;;;3.30;;
4307;SDS011;2167;53.448;9.984;2023-04-25T00:43:15;7.33;;;2.43;;
4307;SDS011;2167;53.448;9.984;2023-04-25T00:45:49;6.80;;;1.90;;
4307;SDS011;2167;53.448;9.984;2023-04-25T00:48:17;4.97;;;2.00;;
4307;SDS011;2167;53.448;9.984;2023-04-25T00:50:49;9.93;;;3.40;;
4307;SDS011;2167;53.448;9.984;2023-04-25T00:53:18;7.03;;;1.80;;
4307;SDS011;2167;53.448;9.984;2023-04-25T00:55:45;10.10;;;2.63;;
4307;SDS011;2167;53.448;9.984;2023-04-25T00:58:11;2.43;;;1.67;;
4307;SDS011;2167;53.448;9.984;2023-04-25T01:00:36;5.57;;;2.53;;
4307;SDS011;2167;53.448;9.984;2023-04-25T01:03:06;5.87;;;2.53;;
4307;SDS011;2167;53.448;9.984;2023-04-25T01:05:38;10.93;;;2.80;;
4307;SDS011;2167;53.448;9.984;2023-04-25T01:08:06;11.10;;;2.60;;
4307;SDS011;2167;53.448;9.984;2023-04-25T01:10:32;6.40;;;2.13;;
4307;SDS011;2167;53.448;9.984;2023-04-25T01:12:58;10.03;;;2.20;;
4307;SDS011;2167;53.448;9.984;2023-04-25T01:15:26;10.20;;;2.47;;
4307;SDS011;2167;53.448;9.984;2023-04-25T01:17:52;6.17;;;3.27;;
4307;SDS011;2167;53.448;9.984;2023-04-25T01:20:18;10.63;;;2.87;;
4307;SDS011;2167;53.448;9.984;2023-04-25T01:22:47;6.07;;;2.37;;
4307;SDS011;2167;53.448;9.984;2023-04-25T01:25:12;9.47;;;2.73;;
4307;SDS011;2167;53.448;9.984;2023-04-25T01:27:40;6.77;;;2.37;;
4307;SDS011;2167;53.448;9.984;2023-04-25T01:30:06;12.60;;;2.97;;
4307;SDS011;2167;53.448;9.984;2023-04-25T01:32:33;7.57;;;2.80;;
4307;SDS011;2167;53.448;9.984;2023-04-25T01:35:06;7.33;;;2.13;;
4307;SDS011;2167;53.448;9.984;2023-04-25T01:37:40;12.47;;;2.63;;
4307;SDS011;2167;53.448;9.984;2023-04-25T01:40:10;7.43;;;3.03;;
4307;SDS011;2167;53.448;9.984;2023-04-25T01:42:38;9.30;;;2.80;;
4307;SDS011;2167;53.448;9.984;2023-04-25T01:45:05;16.00;;;2.50;;
4307;SDS011;2167;53.448;9.984;2023-04-25T01:47:32;11.73;;;3.03;;
4307;SDS011;2167;53.448;9.984;2023-04-25T01:50:00;22.77;;;3.63;;
4307;SDS011;2167;53.448;9.984;2023-04-25T01:52:26;11.73;;;2.80;;
4307;SDS011;2167;53.448;9.984;2023-04-25T01:54:52;12.30;;;3.23;;
4307;SDS011;2167;53.448;9.984;2023-04-25T01:57:19;6.43;;;1.60;;
4307;SDS011;2167;53.448;9.984;2023-04-25T01:59:44;7.23;;;2.90;;
4307;SDS011;2167;53.448;9.984;2023-04-25T02:02:11;11.43;;;3.03;;
4307;SDS011;2167;53.448;9.984;2023-04-25T02:04:36;12.80;;;3.37;;
4307;SDS011;2167;53.448;9.984;2023-04-25T02:07:02;15.53;;;5.30;;
4307;SDS011;2167;53.448;9.984;2023-04-25T02:09:28;5.80;;;2.60;;
4307;SDS011;2167;53.448;9.984;2023-04-25T02:11:54;5.60;;;2.50;;
4307;SDS011;2167;53.448;9.984;2023-04-25T02:14:22;5.43;;;2.23;;
4307;SDS011;2167;53.448;9.984;2023-04-25T02:16:48;16.27;;;4.20;;
4307;SDS011;2167;53.448;9.984;2023-04-25T02:19:14;9.30;;;2.90;;
4307;SDS011;2167;53.448;9.984;2023-04-25T02:21:39;7.17;;;3.20;;
4307;SDS011;2167;53.448;9.984;2023-04-25T02:24:05;4.43;;;2.20;;
4307;SDS011;2167;53.448;9.984;2023-04-25T02:26:31;8.70;;;3.00;;
4307;SDS011;2167;53.448;9.984;2023-04-25T02:28:57;6.33;;;2.30;;
4307;SDS011;2167;53.448;9.984;2023-04-25T02:31:22;4.60;;;2.00;;
4307;SDS011;2167;53.448;9.984;2023-04-25T02:33:48;3.90;;;1.50;;
4307;SDS011;2167;53.448;9.984;2023-04-25T02:36:14;10.27;;;3.00;;
4307;SDS011;2167;53.448;9.984;2023-04-25T02:38:43;8.80;;;3.87;;
4307;SDS011;2167;53.448;9.984;2023-04-25T02:41:08;9.13;;;2.43;;
4307;SDS011;2167;53.448;9.984;2023-04-25T02:43:34;5.60;;;1.70;;
4307;SDS011;2167;53.448;9.984;2023-04-25T02:46:00;5.20;;;1.93;;
4307;SDS011;2167;53.448;9.984;2023-04-25T02:48:25;14.40;;;4.20;;
4307;SDS011;2167;53.448;9.984;2023-04-25T02:50:51;11.03;;;1.90;;
4307;SDS011;2167;53.448;9.984;2023-04-25T02:53:17;12.40;;;3.43;;
4307;SDS011;2167;53.448;9.984;2023-04-25T02:55:42;13.73;;;2.30;;
4307;SDS011;2167;53.448;9.984;2023-04-25T02:58:08;4.60;;;1.80;;
4307;SDS011;2167;53.448;9.984;2023-04-25T03:00:34;5.50;;;2.27;;
4307;SDS011;2167;53.448;9.984;2023-04-25T03:02:59;10.80;;;2.80;;
4307;SDS011;2167;53.448;9.984;2023-04-25T03:05:25;4.23;;;1.73;;
4307;SDS011;2167;53.448;9.984;2023-04-25T03:07:51;12.90;;;3.60;;
4307;SDS011;2167;53.448;9.984;2023-04-25T03:10:16;7.27;;;2.27;;
4307;SDS011;2167;53.448;9.984;2023-04-25T03:12:42;8.23;;;3.83;;
4307;SDS011;2167;53.448;9.984;2023-04-25T03:15:07;6.87;;;2.63;;
4307;SDS011;2167;53.448;9.984;2023-04-25T03:17:33;9.67;;;2.27;;
4307;SDS011;2167;53.448;9.984;2023-04-25T03:19:59;13.27;;;2.83;;
4307;SDS011;2167;53.448;9.984;2023-04-25T03:22:25;9.20;;;3.00;;
4307;SDS011;2167;53.448;9.984;2023-04-25T03:24:51;6.87;;;2.70;;
4307;SDS011;2167;53.448;9.984;2023-04-25T03:27:17;12.90;;;3.10;;
4307;SDS011;2167;53.448;9.984;2023-04-25T03:29:42;11.30;;;3.10;;
4307;SDS011;2167;53.448;9.984;2023-04-25T03:32:08;12.73;;;3.60;;
4307;SDS011;2167;53.448;9.984;2023-04-25T03:34:34;10.83;;;3.10;;
4307;SDS011;2167;53.448;9.984;2023-04-25T03:36:59;8.40;;;1.97;;
4307;SDS011;2167;53.448;9.984;2023-04-25T03:39:25;17.20;;;2.67;;
4307;SDS011;2167;53.448;9.984;2023-04-25T03:41:51;14.47;;;2.97;;
4307;SDS011;2167;53.448;9.984;2023-04-25T03:44:17;5.53;;;1.60;;
4307;SDS011;2167;53.448;9.984;2023-04-25T03:46:43;2.00;;;1.87;;
4307;SDS011;2167;53.448;9.984;2023-04-25T03:49:08;9.63;;;2.50;;
4307;SDS011;2167;53.448;9.984;2023-04-25T03:51:34;5.80;;;1.93;;
4307;SDS011;2167;53.448;9.984;2023-04-25T03:54:00;11.90;;;2.07;;
4307;SDS011;2167;53.448;9.984;2023-04-25T03:56:26;13.70;;;2.17;;
4307;SDS011;2167;53.448;9.984;2023-04-25T03:58:54;10.70;;;2.70;;
4307;SDS011;2167;53.448;9.984;2023-04-25T04:01:20;14.53;;;3.67;;
4307;SDS011;2167;53.448;9.984;2023-04-25T04:03:46;2.47;;;1.73;;
4307;SDS011;2167;53.448;9.984;2023-04-25T04:06:11;10.73;;;2.70;;
4307;SDS011;2167;53.448;9.984;2023-04-25T04:08:38;10.30;;;2.17;;
4307;SDS011;2167;53.448;9.984;2023-04-25T04:11:04;6.47;;;2.30;;
4307;SDS011;2167;53.448;9.984;2023-04-25T04:13:30;9.43;;;2.50;;
4307;SDS011;2167;53.448;9.984;2023-04-25T04:15:55;8.53;;;1.60;;
4307;SDS011;2167;53.448;9.984;2023-04-25T04:18:22;7.30;;;2.33;;
4307;SDS011;2167;53.448;9.984;2023-04-25T04:20:47;4.70;;;2.03;;
4307;SDS011;2167;53.448;9.984;2023-04-25T04:23:13;13.60;;;2.77;;
4307;SDS011;2167;53.448;9.984;2023-04-25T04:25:38;6.60;;;1.70;;
4307;SDS011;2167;53.448;9.984;2023-04-25T04:28:07;4.43;;;1.73;;
4307;SDS011;2167;53.448;9.984;2023-04-25T04:30:33;12.17;;;2.17;;
4307;SDS011;2167;53.448;9.984;2023-04-25T04:33:01;12.50;;;2.93;;
4307;SDS011;2167;53.448;9.984;2023-04-25T04:35:28;3.40;;;1.67;;
4307;SDS011;2167;53.448;9.984;2023-04-25T04:37:53;5.00;;;1.60;;
4307;SDS011;2167;53.448;9.984;2023-04-25T04:40:19;10.50;;;2.73;;
4307;SDS011;2167;53.448;9.984;2023-04-25T04:42:45;7.43;;;2.07;;
4307;SDS011;2167;53.448;9.984;2023-04-25T04:45:11;6.67;;;1.87;;
4307;SDS011;2167;53.448;9.984;2023-04-25T04:47:38;13.73;;;2.60;;
4307;SDS011;2167;53.448;9.984;2023-04-25T04:50:05;6.30;;;2.60;;
4307;SDS011;2167;53.448;9.984;2023-04-25T04:52:35;5.80;;;1.77;;
4307;SDS011;2167;53.448;9.984;2023-04-25T04:55:02;6.60;;;1.90;;
4307;SDS011;2167;53.448;9.984;2023-04-25T04:57:29;13.83;;;1.67;;
4307;SDS011;2167;53.448;9.984;2023-04-25T04:59:54;6.80;;;1.43;;
4307;SDS011;2167;53.448;9.984;2023-04-25T05:02:20;3.63;;;1.90;;
4307;SDS011;2167;53.448;9.984;2023-04-25T05:04:47;4.37;;;2.07;;
4307;SDS011;2167;53.448;9.984;2023-04-25T05:07:13;10.57;;;1.80;;
4307;SDS011;2167;53.448;9.984;2023-04-25T05:09:38;2.67;;;1.30;;
4307;SDS011;2167;53.448;9.984;2023-04-25T05:12:04;11.03;;;2.30;;
4307;SDS011;2167;53.448;9.984;2023-04-25T05:14:30;7.27;;;2.00;;
4307;SDS011;2167;53.448;9.984;2023-04-25T05:16:56;7.67;;;2.20;;
4307;SDS011;2167;53.448;9.984;2023-04-25T05:19:21;6.03;;;2.17;;
4307;SDS011;2167;53.448;9.984;2023-04-25T05:21:48;6.60;;;1.50;;
4307;SDS011;2167;53.448;9.984;2023-04-25T05:24:14;6.73;;;2.53;;
4307;SDS011;2167;53.448;9.984;2023-04-25T05:26:40;16.83;;;2.60;;
4307;SDS011;2167;53.448;9.984;2023-04-25T05:29:05;11.23;;;3.17;;
4307;SDS011;2167;53.448;9.984;2023-04-25T05:31:31;7.83;;;2.23;;
4307;SDS011;2167;53.448;9.984;2023-04-25T05:33:57;5.70;;;1.40;;
4307;SDS011;2167;53.448;9.984;2023-04-25T05:36:22;12.50;;;2.40;;
4307;SDS011;2167;53.448;9.984;2023-04-25T05:38:48;7.13;;;2.37;;
4307;SDS011;2167;53.448;9.984;2023-04-25T05:41:14;6.03;;;1.93;;
4307;SDS011;2167;53.448;9.984;2023-04-25T05:43:40;4.40;;;2.13;;
4307;SDS011;2167;53.448;9.984;2023-04-25T05:46:12;13.63;;;2.50;;
4307;SDS011;2167;53.448;9.984;2023-04-25T05:48:37;4.83;;;1.93;;
4307;SDS011;2167;53.448;9.984;2023-04-25T05:51:03;9.30;;;1.80;;
4307;SDS011;2167;53.448;9.984;2023-04-25T05:53:29;3.70;;;1.80;;
4307;SDS011;2167;53.448;9.984;2023-04-25T05:55:54;9.33;;;1.90;;
4307;SDS011;2167;53.448;9.984;2023-04-25T05:58:20;8.40;;;1.70;;
4307;SDS011;2167;53.448;9.984;2023-04-25T06:00:46;10.50;;;1.90;;
4307;SDS011;2167;53.448;9.984;2023-04-25T06:03:11;10.03;;;2.93;;
4307;SDS011;2167;53.448;9.984;2023-04-25T06:05:40;6.17;;;1.87;;
4307;SDS011;2167;53.448;9.984;2023-04-25T06:08:07;6.80;;;2.20;;
4307;SDS011;2167;53.448;9.984;2023-04-25T06:10:33;8.00;;;1.80;;
4307;SDS011;2167;53.448;9.984;2023-04-25T06:12:58;6.80;;;2.47;;
4307;SDS011;2167;53.448;9.984;2023-04-25T06:15:24;5.87;;;2.20;;
4307;SDS011;2167;53.448;9.984;2023-04-25T06:17:50;6.37;;;2.27;;
4307;SDS011;2167;53.448;9.984;2023-04-25T06:20:15;5.30;;;1.90;;
4307;SDS011;2167;53.448;9.984;2023-04-25T06:22:41;5.97;;;1.80;;
4307;SDS011;2167;53.448;9.984;2023-04-25T06:25:06;5.73;;;2.50;;
4307;SDS011;2167;53.448;9.984;2023-04-25T06:27:33;19.70;;;3.53;;
4307;SDS011;2167;53.448;9.984;2023-04-25T06:29:59;18.53;;;2.07;;
4307;SDS011;2167;53.448;9.984;2023-04-25T06:32:24;10.93;;;1.60;;
4307;SDS011;2167;53.448;9.984;2023-04-25T06:34:54;4.63;;;2.77;;
4307;SDS011;2167;53.448;9.984;2023-04-25T06:37:20;5.07;;;2.03;;
4307;SDS011;2167;53.448;9.984;2023-04-25T06:39:45;6.00;;;1.20;;
4307;SDS011;2167;53.448;9.984;2023-04-25T06:42:11;5.10;;;1.50;;
4307;SDS011;2167;53.448;9.984;2023-04-25T06:44:37;6.90;;;1.53;;
4307;SDS011;2167;53.448;9.984;2023-04-25T06:47:02;14.60;;;2.03;;
4307;SDS011;2167;53.448;9.984;2023-04-25T06:49:28;11.33;;;3.77;;
4307;SDS011;2167;53.448;9.984;2023-04-25T06:51:53;5.83;;;1.47;;
4307;SDS011;2167;53.448;9.984;2023-04-25T06:54:19;8.37;;;1.50;;
4307;SDS011;2167;53.448;9.984;2023-04-25T06:56:45;15.30;;;3.60;;
4307;SDS011;2167;53.448;9.984;2023-04-25T06:59:11;4.57;;;1.47;;
4307;SDS011;2167;53.448;9.984;2023-04-25T07:01:36;5.77;;;1.63;;
4307;SDS011;2167;53.448;9.984;2023-04-25T07:04:02;10.70;;;1.67;;
4307;SDS011;2167;53.448;9.984;2023-04-25T07:06:27;3.03;;;1.70;;
4307;SDS011;2167;53.448;9.984;2023-04-25T07:08:53;4.83;;;2.40;;
4307;SDS011;2167;53.448;9.984;2023-04-25T07:11:20;9.10;;;2.13;;
4307;SDS011;2167;53.448;9.984;2023-04-25T07:13:46;15.57;;;1.90;;
4307;SDS011;2167;53.448;9.984;2023-04-25T07:16:11;1.40;;;1.30;;
4307;SDS011;2167;53.448;9.984;2023-04-25T07:18:37;2.93;;;1.57;;
4307;SDS011;2167;53.448;9.984;2023-04-25T07:21:03;2.50;;;2.30;;
4307;SDS011;2167;53.448;9.984;2023-04-25T07:23:28;14.40;;;1.57;;
4307;SDS011;2167;53.448;9.984;2023-04-25T07:25:55;10.00;;;1.87;;
4307;SDS011;2167;53.448;9.984;2023-04-25T07:28:20;4.23;;;1.67;;
4307;SDS011;2167;53.448;9.984;2023-04-25T07:30:46;5.37;;;1.87;;
4307;SDS011;2167;53.448;9.984;2023-04-25T07:33:12;14.53;;;2.10;;
4307;SDS011;2167;53.448;9.984;2023-04-25T07:35:38;7.63;;;2.10;;
4307;SDS011;2167;53.448;9.984;2023-04-25T07:38:03;3.97;;;1.57;;
4307;SDS011;2167;53.448;9.984;2023-04-25T07:40:31;3.57;;;1.40;;
4307;SDS011;2167;53.448;9.984;2023-04-25T07:42:57;5.50;;;1.87;;
4307;SDS011;2167;53.448;9.984;2023-04-25T07:45:23;8.30;;;2.00;;
4307;SDS011;2167;53.448;9.984;2023-04-25T07:47:49;1.83;;;1.00;;
4307;SDS011;2167;53.448;9.984;2023-04-25T07:50:15;6.10;;;2.17;;
4307;SDS011;2167;53.448;9.984;2023-04-25T07:52:40;2.83;;;1.57;;
4307;SDS011;2167;53.448;9.984;2023-04-25T07:55:06;4.53;;;1.50;;
4307;SDS011;2167;53.448;9.984;2023-04-25T07:57:32;6.33;;;1.20;;
4307;SDS011;2167;53.448;9.984;2023-04-25T07:59:57;3.57;;;1.10;;
4307;SDS011;2167;53.448;9.984;2023-04-25T08:02:23;5.60;;;1.77;;
4307;SDS011;2167;53.448;9.984;2023-04-25T08:04:51;2.00;;;0.97;;
4307;SDS011;2167;53.448;9.984;2023-04-25T08:07:16;3.57;;;1.50;;
4307;SDS011;2167;53.448;9.984;2023-04-25T08:09:42;16.90;;;1.57;;
4307;SDS011;2167;53.448;9.984;2023-04-25T08:12:07;3.73;;;0.93;;
4307;SDS011;2167;53.448;9.984;2023-04-25T08:14:33;2.03;;;0.93;;
4307;SDS011;2167;53.448;9.984;2023-04-25T08:17:02;2.53;;;0.90;;
4307;SDS011;2167;53.448;9.984;2023-04-25T08:19:29;3.90;;;1.20;;
4307;SDS011;2167;53.448;9.984;2023-04-25T08:21:55;1.93;;;1.30;;
4307;SDS011;2167;53.448;9.984;2023-04-25T08:24:22;9.80;;;1.30;;
4307;SDS011;2167;53.448;9.984;2023-04-25T08:26:48;2.33;;;0.53;;
4307;SDS011;2167;53.448;9.984;2023-04-25T08:29:14;3.97;;;1.73;;
4307;SDS011;2167;53.448;9.984;2023-04-25T08:31:40;8.07;;;1.00;;
4307;SDS011;2167;53.448;9.984;2023-04-25T08:34:05;3.97;;;1.03;;
4307;SDS011;2167;53.448;9.984;2023-04-25T08:36:31;8.43;;;1.20;;
4307;SDS011;2167;53.448;9.984;2023-04-25T08:39:00;4.60;;;1.13;;
4307;SDS011;2167;53.448;9.984;2023-04-25T08:41:25;3.33;;;1.23;;
4307;SDS011;2167;53.448;9.984;2023-04-25T08:43:52;1.80;;;0.83;;
4307;SDS011;2167;53.448;9.984;2023-04-25T08:46:18;4.40;;;1.57;;
4307;SDS011;2167;53.448;9.984;2023-04-25T08:48:44;1.90;;;1.07;;
4307;SDS011;2167;53.448;9.984;2023-04-25T08:51:14;5.13;;;1.07;;
4307;SDS011;2167;53.448;9.984;2023-04-25T08:53:46;2.20;;;0.80;;
4307;SDS011;2167;53.448;9.984;2023-04-25T08:56:15;6.03;;;1.03;;
4307;SDS011;2167;53.448;9.984;2023-04-25T08:58:50;5.80;;;0.80;;
4307;SDS011;2167;53.448;9.984;2023-04-25T09:01:16;2.50;;;0.90;;
4307;SDS011;2167;53.448;9.984;2023-04-25T09:03:43;3.13;;;0.67;;
4307;SDS011;2167;53.448;9.984;2023-04-25T09:06:10;5.97;;;1.40;;
4307;SDS011;2167;53.448;9.984;2023-04-25T09:08:36;2.00;;;0.70;;
4307;SDS011;2167;53.448;9.984;2023-04-25T09:11:02;1.97;;;0.70;;
4307;SDS011;2167;53.448;9.984;2023-04-25T09:13:28;1.13;;;0.70;;
4307;SDS011;2167;53.448;9.984;2023-04-25T09:15:55;1.60;;;0.97;;
4307;SDS011;2167;53.448;9.984;2023-04-25T09:18:28;8.50;;;0.80;;
4307;SDS011;2167;53.448;9.984;2023-04-25T09:20:56;1.40;;;0.90;;
4307;SDS011;2167;53.448;9.984;2023-04-25T09:23:39;1.90;;;0.73;;
4307;SDS011;2167;53.448;9.984;2023-04-25T09:26:15;2.00;;;1.10;;
4307;SDS011;2167;53.448;9.984;2023-04-25T09:28:43;1.07;;;0.43;;
4307;SDS011;2167;53.448;9.984;2023-04-25T09:31:11;3.80;;;0.80;;
4307;SDS011;2167;53.448;9.984;2023-04-25T09:33:37;2.33;;;0.80;;
4307;SDS011;2167;53.448;9.984;2023-04-25T09:36:07;4.47;;;2.47;;
4307;SDS011;2167;53.448;9.984;2023-04-25T09:38:41;1.40;;;0.83;;
4307;SDS011;2167;53.448;9.984;2023-04-25T09:41:08;5.67;;;1.10;;
4307;SDS011;2167;53.448;9.984;2023-04-25T09:43:34;1.03;;;0.93;;
4307;SDS011;2167;53.448;9.984;2023-04-25T09:46:01;5.10;;;1.03;;
4307;SDS011;2167;53.448;9.984;2023-04-25T09:48:27;4.83;;;1.10;;
4307;SDS011;2167;53.448;9.984;2023-04-25T09:51:10;2.63;;;1.33;;
4307;SDS011;2167;53.448;9.984;2023-04-25T09:53:39;0.97;;;0.70;;
4307;SDS011;2167;53.448;9.984;2023-04-25T09:56:07;1.40;;;0.53;;
4307;SDS011;2167;53.448;9.984;2023-04-25T09:58:35;2.40;;;0.90;;
4307;SDS011;2167;53.448;9.984;2023-04-25T10:01:02;4.00;;;0.93;;
4307;SDS011;2167;53.448;9.984;2023-04-25T10:03:36;2.60;;;0.90;;
4307;SDS011;2167;53.448;9.984;2023-04-25T10:06:14;2.00;;;0.60;;
4307;SDS011;2167;53.448;9.984;2023-04-25T10:08:44;2.17;;;0.83;;
4307;SDS011;2167;53.448;9.984;2023-04-25T10:11:14;5.50;;;0.83;;
4307;SDS011;2167;53.448;9.984;2023-04-25T10:13:41;1.80;;;0.70;;
4307;SDS011;2167;53.448;9.984;2023-04-25T10:16:07;1.33;;;1.13;;
4307;SDS011;2167;53.448;9.984;2023-04-25T10:18:33;2.27;;;0.93;;
4307;SDS011;2167;53.448;9.984;2023-04-25T10:20:59;5.73;;;1.53;;
4307;SDS011;2167;53.448;9.984;2023-04-25T10:23:26;2.63;;;1.43;;
4307;SDS011;2167;53.448;9.984;2023-04-25T10:25:54;3.40;;;1.37;;
4307;SDS011;2167;53.448;9.984;2023-04-25T10:28:20;3.10;;;1.27;;
4307;SDS011;2167;53.448;9.984;2023-04-25T10:30:59;1.90;;;1.00;;
4307;SDS011;2167;53.448;9.984;2023-04-25T10:33:29;2.20;;;1.17;;
4307;SDS011;2167;53.448;9.984;2023-04-25T10:38:36;7.10;;;1.33;;
4307;SDS011;2167;53.448;9.984;2023-04-25T10:41:06;4.90;;;0.87;;
4307;SDS011;2167;53.448;9.984;2023-04-25T10:43:34;2.20;;;1.00;;
4307;SDS011;2167;53.448;9.984;2023-04-25T10:46:13;6.10;;;0.60;;
4307;SDS011;2167;53.448;9.984;2023-04-25T10:48:46;2.30;;;1.30;;
4307;SDS011;2167;53.448;9.984;2023-04-25T10:51:26;0.60;;;0.43;;
4307;SDS011;2167;53.448;9.984;2023-04-25T10:54:00;0.70;;;0.70;;
4307;SDS011;2167;53.448;9.984;2023-04-25T10:56:28;0.77;;;0.77;;
4307;SDS011;2167;53.448;9.984;2023-04-25T10:59:05;2.67;;;0.70;;
4307;SDS011;2167;53.448;9.984;2023-04-25T11:04:29;0.80;;;0.50;;
4307;SDS011;2167;53.448;9.984;2023-04-25T11:09:28;3.47;;;0.90;;
4307;SDS011;2167;53.448;9.984;2023-04-25T11:11:54;2.00;;;0.73;;
4307;SDS011;2167;53.448;9.984;2023-04-25T11:14:20;5.47;;;0.83;;
4307;SDS011;2167;53.448;9.984;2023-04-25T11:16:46;2.20;;;0.70;;
4307;SDS011;2167;53.448;9.984;2023-04-25T11:19:13;3.20;;;0.83;;
4307;SDS011;2167;53.448;9.984;2023-04-25T11:21:38;3.50;;;0.80;;
4307;SDS011;2167;53.448;9.984;2023-04-25T11:24:04;2.73;;;1.27;;
4307;SDS011;2167;53.448;9.984;2023-04-25T11:26:30;4.40;;;1.00;;
4307;SDS011;2167;53.448;9.984;2023-04-25T11:28:58;7.07;;;1.20;;
4307;SDS011;2167;53.448;9.984;2023-04-25T11:31:28;2.50;;;0.87;;
4307;SDS011;2167;53.448;9.984;2023-04-25T11:33:56;1.70;;;0.70;;
4307;SDS011;2167;53.448;9.984;2023-04-25T11:36:22;1.60;;;1.13;;
4307;SDS011;2167;53.448;9.984;2023-04-25T11:38:50;1.80;;;0.90;;
4307;SDS011;2167;53.448;9.984;2023-04-25T11:41:17;2.97;;;0.67;;
4307;SDS011;2167;53.448;9.984;2023-04-25T11:43:43;1.50;;;1.23;;
4307;SDS011;2167;53.448;9.984;2023-04-25T11:46:09;0.47;;;0.47;;
4307;SDS011;2167;53.448;9.984;2023-04-25T11:48:39;0.77;;;0.40;;
4307;SDS011;2167;53.448;9.984;2023-04-25T11:51:08;2.80;;;0.33;;
4307;SDS011;2167;53.448;9.984;2023-04-25T11:53:34;2.30;;;0.77;;
4307;SDS011;2167;53.448;9.984;2023-04-25T11:56:00;2.33;;;0.53;;
4307;SDS011;2167;53.448;9.984;2023-04-25T11:58:26;1.90;;;0.67;;
4307;SDS011;2167;53.448;9.984;2023-04-25T12:00:52;0.97;;;0.67;;
4307;SDS011;2167;53.448;9.984;2023-04-25T12:03:18;4.47;;;1.10;;
4307;SDS011;2167;53.448;9.984;2023-04-25T12:05:45;0.80;;;0.50;;
4307;SDS011;2167;53.448;9.984;2023-04-25T12:08:11;4.03;;;1.23;;
4307;SDS011;2167;53.448;9.984;2023-04-25T12:10:38;1.07;;;0.70;;
4307;SDS011;2167;53.448;9.984;2023-04-25T12:13:18;4.23;;;0.90;;
4307;SDS011;2167;53.448;9.984;2023-04-25T12:15:55;1.40;;;0.60;;
4307;SDS011;2167;53.448;9.984;2023-04-25T12:18:22;2.23;;;0.90;;
4307;SDS011;2167;53.448;9.984;2023-04-25T12:20:49;1.07;;;1.00;;
4307;SDS011;2167;53.448;9.984;2023-04-25T12:23:15;3.00;;;1.27;;
4307;SDS011;2167;53.448;9.984;2023-04-25T12:25:41;1.70;;;0.63;;
4307;SDS011;2167;53.448;9.984;2023-04-25T12:28:17;3.87;;;2.90;;
4307;SDS011;2167;53.448;9.984;2023-04-25T12:33:25;2.83;;;0.80;;
4307;SDS011;2167;53.448;9.984;2023-04-25T12:35:53;3.60;;;1.00;;
4307;SDS011;2167;53.448;9.984;2023-04-25T12:38:20;1.40;;;1.03;;
4307;SDS011;2167;53.448;9.984;2023-04-25T12:40:50;1.30;;;0.60;;
4307;SDS011;2167;53.448;9.984;2023-04-25T12:43:16;6.40;;;1.07;;
4307;SDS011;2167;53.448;9.984;2023-04-25T12:45:42;4.37;;;1.03;;
4307;SDS011;2167;53.448;9.984;2023-04-25T12:48:08;2.10;;;0.90;;
4307;SDS011;2167;53.448;9.984;2023-04-25T12:50:34;5.70;;;1.10;;
4307;SDS011;2167;53.448;9.984;2023-04-25T12:52:59;7.50;;;0.80;;
4307;SDS011;2167;53.448;9.984;2023-04-25T12:55:25;0.40;;;0.40;;
4307;SDS011;2167;53.448;9.984;2023-04-25T12:57:51;4.53;;;1.30;;
4307;SDS011;2167;53.448;9.984;2023-04-25T13:00:17;7.23;;;0.80;;
4307;SDS011;2167;53.448;9.984;2023-04-25T13:02:44;2.27;;;1.20;;
4307;SDS011;2167;53.448;9.984;2023-04-25T13:05:11;0.60;;;0.60;;
4307;SDS011;2167;53.448;9.984;2023-04-25T13:07:37;1.73;;;1.10;;
4307;SDS011;2167;53.448;9.984;2023-04-25T13:10:03;2.00;;;0.70;;
4307;SDS011;2167;53.448;9.984;2023-04-25T13:12:30;4.77;;;1.00;;
4307;SDS011;2167;53.448;9.984;2023-04-25T13:14:56;2.03;;;0.63;;
4307;SDS011;2167;53.448;9.984;2023-04-25T13:17:22;2.70;;;0.73;;
4307;SDS011;2167;53.448;9.984;2023-04-25T13:19:47;3.63;;;1.00;;
4307;SDS011;2167;53.448;9.984;2023-04-25T13:22:13;7.87;;;0.97;;
4307;SDS011;2167;53.448;9.984;2023-04-25T13:24:40;2.37;;;0.67;;
4307;SDS011;2167;53.448;9.984;2023-04-25T13:27:06;2.23;;;1.03;;
4307;SDS011;2167;53.448;9.984;2023-04-25T13:29:31;2.20;;;0.77;;
4307;SDS011;2167;53.448;9.984;2023-04-25T13:31:59;2.23;;;1.33;;
4307;SDS011;2167;53.448;9.984;2023-04-25T13:34:25;1.47;;;0.80;;
4307;SDS011;2167;53.448;9.984;2023-04-25T13:36:51;2.70;;;1.03;;
4307;SDS011;2167;53.448;9.984;2023-04-25T13:39:17;3.93;;;1.30;;
4307;SDS011;2167;53.448;9.984;2023-04-25T13:41:42;1.70;;;0.70;;
4307;SDS011;2167;53.448;9.984;2023-04-25T13:44:08;1.70;;;0.90;;
4307;SDS011;2167;53.448;9.984;2023-04-25T13:46:34;5.70;;;1.10;;
4307;SDS011;2167;53.448;9.984;2023-04-25T13:49:00;0.90;;;0.90;;
4307;SDS011;2167;53.448;9.984;2023-04-25T13:51:25;2.10;;;1.17;;
4307;SDS011;2167;53.448;9.984;2023-04-25T13:53:51;3.90;;;0.93;;
4307;SDS011;2167;53.448;9.984;2023-04-25T13:56:17;7.13;;;0.93;;
4307;SDS011;2167;53.448;9.984;2023-04-25T13:58:44;3.90;;;1.17;;
4307;SDS011;2167;53.448;9.984;2023-04-25T14:01:10;3.70;;;1.13;;
4307;SDS011;2167;53.448;9.984;2023-04-25T14:03:35;1.73;;;1.03;;
4307;SDS011;2167;53.448;9.984;2023-04-25T14:06:01;2.30;;;1.37;;
4307;SDS011;2167;53.448;9.984;2023-04-25T14:08:27;0.70;;;0.60;;
4307;SDS011;2167;53.448;9.984;2023-04-25T14:10:53;1.67;;;0.60;;
4307;SDS011;2167;53.448;9.984;2023-04-25T14:13:19;3.97;;;1.33;;
4307;SDS011;2167;53.448;9.984;2023-04-25T14:15:45;8.43;;;1.50;;
4307;SDS011;2167;53.448;9.984;2023-04-25T14:18:11;7.43;;;1.37;;
4307;SDS011;2167;53.448;9.984;2023-04-25T14:20:36;5.73;;;1.60;;
4307;SDS011;2167;53.448;9.984;2023-04-25T14:23:02;9.83;;;1.77;;
4307;SDS011;2167;53.448;9.984;2023-04-25T14:25:27;0.70;;;0.70;;
4307;SDS011;2167;53.448;9.984;2023-04-25T14:27:55;4.70;;;1.00;;
4307;SDS011;2167;53.448;9.984;2023-04-25T14:30:20;3.33;;;0.90;;
4307;SDS011;2167;53.448;9.984;2023-04-25T14:32:48;6.03;;;0.90;;
4307;SDS011;2167;53.448;9.984;2023-04-25T14:35:17;1.80;;;0.70;;
4307;SDS011;2167;53.448;9.984;2023-04-25T14:37:42;4.33;;;1.70;;
4307;SDS011;2167;53.448;9.984;2023-04-25T14:40:09;2.53;;;0.97;;
4307;SDS011;2167;53.448;9.984;2023-04-25T14:42:35;4.20;;;1.77;;
4307;SDS011;2167;53.448;9.984;2023-04-25T14:45:02;3.60;;;1.00;;
4307;SDS011;2167;53.448;9.984;2023-04-25T14:47:29;2.50;;;0.70;;
4307;SDS011;2167;53.448;9.984;2023-04-25T14:49:54;3.07;;;1.03;;
4307;SDS011;2167;53.448;9.984;2023-04-25T14:52:21;1.80;;;0.97;;
4307;SDS011;2167;53.448;9.984;2023-04-25T14:54:46;6.53;;;0.90;;
4307;SDS011;2167;53.448;9.984;2023-04-25T14:57:12;2.10;;;1.00;;
4307;SDS011;2167;53.448;9.984;2023-04-25T14:59:38;5.03;;;1.60;;
4307;SDS011;2167;53.448;9.984;2023-04-25T15:02:05;1.63;;;0.67;;
4307;SDS011;2167;53.448;9.984;2023-04-25T15:04:31;2.00;;;0.70;;
4307;SDS011;2167;53.448;9.984;2023-04-25T15:06:57;1.50;;;0.70;;
4307;SDS011;2167;53.448;9.984;2023-04-25T15:09:22;3.23;;;0.80;;
4307;SDS011;2167;53.448;9.984;2023-04-25T15:11:49;1.60;;;1.00;;
4307;SDS011;2167;53.448;9.984;2023-04-25T15:14:16;2.77;;;0.87;;
4307;SDS011;2167;53.448;9.984;2023-04-25T15:16:42;3.47;;;1.20;;
4307;SDS011;2167;53.448;9.984;2023-04-25T15:19:08;0.93;;;0.70;;
4307;SDS011;2167;53.448;9.984;2023-04-25T15:21:33;8.17;;;1.30;;